createdAt,value
2023-04-14T00:00:49.297Z,2.83
2023-04-14T00:02:51.064Z,2.90
2023-04-14T00:04:53.714Z,3.55
2023-04-14T00:06:58.554Z,2.90
2023-04-14T00:09:00.569Z,2.47
2023-04-14T00:11:02.410Z,3.15
2023-04-14T00:13:04.090Z,2.78
2023-04-14T00:15:06.538Z,2.42
2023-04-14T00:17:08.232Z,3.03
2023-04-14T00:19:09.910Z,2.60
2023-04-14T00:21:11.694Z,2.95
2023-04-14T00:23:13.535Z,2.40
2023-04-14T00:25:15.813Z,2.10
2023-04-14T00:27:17.499Z,2.72
2023-04-14T00:29:19.233Z,2.63
2023-04-14T00:31:21.020Z,2.17
2023-04-14T00:33:22.742Z,2.47
2023-04-14T00:35:24.673Z,2.25
2023-04-14T00:37:30.505Z,2.22
2023-04-14T00:39:32.248Z,2.67
2023-04-14T00:41:34.894Z,2.67
2023-04-14T00:43:36.582Z,2.60
2023-04-14T00:45:43.850Z,2.60
2023-04-14T00:47:50.710Z,2.90
2023-04-14T00:49:52.813Z,2.90
2023-04-14T00:51:54.899Z,3.33
2023-04-14T00:53:56.841Z,4.28
2023-04-14T00:55:59.392Z,4.50
2023-04-14T00:58:01.668Z,3.40
2023-04-14T01:00:07.220Z,4.43
2023-04-14T01:02:09.098Z,3.00
2023-04-14T01:04:11.533Z,3.47
2023-04-14T01:06:13.310Z,3.67
2023-04-14T01:08:15.588Z,2.53
2023-04-14T01:10:17.510Z,2.53
2023-04-14T01:12:22.020Z,2.58
2023-04-14T01:15:12.809Z,3.13
2023-04-14T01:17:26.144Z,2.25
2023-04-14T01:19:59.271Z,1.92
2023-04-14T01:22:06.229Z,2.88
2023-04-14T01:24:17.191Z,2.13
2023-04-14T01:26:31.448Z,2.15
2023-04-14T01:28:45.050Z,2.83
2023-04-14T01:30:52.907Z,3.00
2023-04-14T01:32:56.779Z,3.10
2023-04-14T01:35:05.881Z,2.22
2023-04-14T01:37:09.434Z,2.88
2023-04-14T01:39:14.696Z,3.38
2023-04-14T01:41:18.019Z,2.13
2023-04-14T01:43:25.373Z,3.15
2023-04-14T01:45:35.931Z,2.08
2023-04-14T01:47:38.005Z,2.30
2023-04-14T01:49:40.329Z,2.45
2023-04-14T01:51:43.006Z,2.33
2023-04-14T01:53:45.394Z,2.53
2023-04-14T01:55:50.410Z,1.88
2023-04-14T01:57:54.094Z,2.58
2023-04-14T01:59:57.766Z,2.28
2023-04-14T02:02:01.832Z,2.95
2023-04-14T02:04:04.230Z,3.08
2023-04-14T02:06:07.304Z,3.22
2023-04-14T02:08:11.641Z,2.45
2023-04-14T02:10:15.875Z,2.55
2023-04-14T02:12:19.338Z,2.97
2023-04-14T02:14:22.751Z,3.50
2023-04-14T02:16:24.880Z,2.90
2023-04-14T02:18:27.563Z,2.47
2023-04-14T02:20:29.799Z,2.20
2023-04-14T02:22:31.565Z,2.55
2023-04-14T02:24:33.308Z,2.35
2023-04-14T02:26:36.271Z,2.83
2023-04-14T02:28:43.694Z,2.60
2023-04-14T02:30:51.410Z,2.58
2023-04-14T02:33:18.256Z,2.17
2023-04-14T02:35:27.017Z,2.35
2023-04-14T02:37:33.447Z,2.38
2023-04-14T02:39:42.278Z,2.85
2023-04-14T02:41:44.885Z,2.30
2023-04-14T02:43:56.069Z,1.73
2023-04-14T02:45:58.970Z,2.60
2023-04-14T02:48:04.085Z,2.40
2023-04-14T02:50:08.238Z,2.28
2023-04-14T02:52:11.398Z,2.60
2023-04-14T02:54:13.246Z,2.10
2023-04-14T02:56:15.420Z,2.63
2023-04-14T02:58:17.308Z,2.33
2023-04-14T03:00:19.618Z,2.13
2023-04-14T03:02:22.358Z,1.90
2023-04-14T03:04:24.655Z,2.40
2023-04-14T03:06:27.543Z,2.80
2023-04-14T03:08:29.341Z,2.20
2023-04-14T03:10:31.232Z,2.45
2023-04-14T03:12:33.973Z,2.55
2023-04-14T03:14:37.084Z,2.10
2023-04-14T03:16:40.195Z,2.83
2023-04-14T03:18:42.352Z,2.28
2023-04-14T03:20:45.922Z,2.72
2023-04-14T03:22:50.465Z,2.08
2023-04-14T03:24:53.349Z,3.00
2023-04-14T03:26:58.590Z,1.95
2023-04-14T03:29:02.877Z,2.58
2023-04-14T03:31:05.595Z,3.22
2023-04-14T03:33:10.155Z,3.20
2023-04-14T03:35:15.035Z,3.63
2023-04-14T03:37:18.340Z,3.22
2023-04-14T03:39:22.390Z,3.65
2023-04-14T03:41:26.318Z,3.55
2023-04-14T03:43:28.760Z,3.42
2023-04-14T03:45:32.325Z,2.85
2023-04-14T03:47:34.645Z,2.38
2023-04-14T03:49:39.647Z,2.45
2023-04-14T03:51:42.133Z,3.13
2023-04-14T03:53:45.547Z,2.28
2023-04-14T03:55:52.199Z,2.53
2023-04-14T03:57:57.756Z,2.80
2023-04-14T04:00:01.678Z,3.38
2023-04-14T04:02:04.049Z,2.75
2023-04-14T04:04:07.005Z,3.13
2023-04-14T04:06:08.892Z,2.53
2023-04-14T04:08:11.083Z,3.50
2023-04-14T04:10:13.755Z,3.13
2023-04-14T04:12:16.645Z,2.85
2023-04-14T04:14:21.271Z,2.38
2023-04-14T04:16:24.705Z,2.55
2023-04-14T04:18:27.356Z,2.47
2023-04-14T04:20:29.853Z,2.83
2023-04-14T04:22:33.941Z,3.30
2023-04-14T04:24:38.977Z,3.10
2023-04-14T04:26:40.834Z,2.28
2023-04-14T04:28:43.495Z,2.70
2023-04-14T04:30:45.789Z,4.05
2023-04-14T04:32:47.571Z,3.17
2023-04-14T04:34:50.064Z,2.70
2023-04-14T04:36:52.664Z,2.80
2023-04-14T04:38:54.391Z,2.42
2023-04-14T04:40:56.280Z,2.17
2023-04-14T04:42:57.920Z,3.13
2023-04-14T04:44:59.630Z,3.63
2023-04-14T04:47:01.731Z,3.10
2023-04-14T04:49:03.690Z,3.20
2023-04-14T04:51:05.562Z,2.42
2023-04-14T04:53:07.194Z,3.88
2023-04-14T04:55:09.400Z,2.65
2023-04-14T04:57:12.154Z,2.45
2023-04-14T04:59:14.227Z,2.30
2023-04-14T05:01:16.862Z,2.58
2023-04-14T05:03:18.769Z,2.28
2023-04-14T05:05:25.516Z,2.60
2023-04-14T05:07:27.469Z,2.75
2023-04-14T05:09:29.240Z,2.33
2023-04-14T05:11:31.858Z,2.53
2023-04-14T05:13:33.817Z,2.10
2023-04-14T05:15:35.496Z,2.65
2023-04-14T05:17:37.371Z,2.75
2023-04-14T05:19:39.108Z,2.85
2023-04-14T05:21:40.975Z,2.80
2023-04-14T05:23:43.933Z,2.78
2023-04-14T05:25:47.494Z,3.17
2023-04-14T05:27:49.326Z,3.17
2023-04-14T05:29:52.364Z,4.28
2023-04-14T05:31:54.008Z,5.90
2023-04-14T05:33:55.755Z,3.28
2023-04-14T05:35:57.502Z,3.80
2023-04-14T05:37:59.179Z,3.40
2023-04-14T05:40:01.550Z,2.90
2023-04-14T05:42:03.334Z,4.13
2023-04-14T05:44:05.050Z,3.38
2023-04-14T05:46:06.783Z,3.17
2023-04-14T05:48:08.537Z,2.85
2023-04-14T05:50:11.344Z,3.13
2023-04-14T05:52:13.055Z,3.72
2023-04-14T05:54:14.733Z,3.22
2023-04-14T05:56:16.495Z,3.88
2023-04-14T05:58:18.357Z,3.78
2023-04-14T06:00:20.417Z,4.03
2023-04-14T06:02:22.172Z,4.25
2023-04-14T06:04:24.045Z,3.60
2023-04-14T06:06:26.557Z,3.30
2023-04-14T06:08:30.256Z,3.28
2023-04-14T06:10:32.307Z,3.33
2023-04-14T06:12:34.125Z,3.67
2023-04-14T06:14:35.919Z,3.78
2023-04-14T06:16:37.638Z,3.78
2023-04-14T06:18:39.367Z,2.65
2023-04-14T06:20:41.046Z,3.40
2023-04-14T06:22:43.429Z,3.95
2023-04-14T06:24:48.147Z,4.10
2023-04-14T06:26:49.828Z,5.20
2023-04-14T06:28:52.280Z,3.47
2023-04-14T06:30:54.165Z,3.08
2023-04-14T06:32:56.290Z,3.72
2023-04-14T06:34:58.002Z,3.80
2023-04-14T06:37:01.558Z,3.58
2023-04-14T06:39:03.818Z,3.65
2023-04-14T06:41:05.971Z,3.00
2023-04-14T06:43:10.910Z,3.10
2023-04-14T06:45:12.621Z,3.67
2023-04-14T06:47:19.693Z,3.17
2023-04-14T06:49:21.432Z,2.45
2023-04-14T06:51:23.378Z,2.70
2023-04-14T06:53:26.168Z,3.45
2023-04-14T06:55:27.814Z,2.83
2023-04-14T06:57:29.492Z,2.65
2023-04-14T06:59:31.281Z,3.30
2023-04-14T07:01:33.171Z,3.88
2023-04-14T07:03:34.961Z,3.30
2023-04-14T07:05:36.755Z,3.90
2023-04-14T07:07:40.589Z,3.95
2023-04-14T07:09:43.294Z,4.30
2023-04-14T07:11:46.511Z,2.75
2023-04-14T07:13:48.170Z,2.55
2023-04-14T07:15:50.146Z,3.35
2023-04-14T07:17:51.823Z,3.63
2023-04-14T07:19:53.609Z,3.03
2023-04-14T07:21:55.277Z,3.92
2023-04-14T07:23:56.997Z,2.78
2023-04-14T07:25:59.872Z,3.65
2023-04-14T07:28:03.555Z,2.97
2023-04-14T07:30:06.239Z,3.60
2023-04-14T07:32:08.548Z,3.03
2023-04-14T07:34:10.262Z,3.30
2023-04-14T07:36:12.293Z,2.63
2023-04-14T07:38:14.019Z,3.25
2023-04-14T07:40:16.123Z,2.90
2023-04-14T07:42:18.004Z,3.58
2023-04-14T07:44:19.711Z,3.67
2023-04-14T07:46:22.223Z,3.45
2023-04-14T07:48:24.005Z,3.80
2023-04-14T07:50:26.243Z,2.92
2023-04-14T07:52:28.201Z,3.20
2023-04-14T07:54:30.498Z,2.90
2023-04-14T07:56:32.204Z,3.00
2023-04-14T07:58:35.070Z,3.65
2023-04-14T08:00:37.424Z,3.25
2023-04-14T08:02:39.280Z,2.72
2023-04-14T08:04:41.414Z,2.72
2023-04-14T08:06:43.262Z,3.47
2023-04-14T08:08:44.989Z,3.08
2023-04-14T08:10:46.783Z,3.38
2023-04-14T08:12:48.530Z,2.80
2023-04-14T08:14:50.512Z,2.58
2023-04-14T08:16:52.625Z,3.55
2023-04-14T08:18:57.297Z,4.60
2023-04-14T08:20:59.808Z,2.00
2023-04-14T08:23:01.503Z,2.78
2023-04-14T08:25:03.420Z,2.50
2023-04-14T08:27:05.091Z,1.40
2023-04-14T08:29:10.464Z,1.92
2023-04-14T08:31:12.291Z,1.90
2023-04-14T08:33:14.208Z,1.75
2023-04-14T08:35:37.933Z,1.83
2023-04-14T08:37:38.268Z,1.55
2023-04-14T08:39:40.226Z,1.10
2023-04-14T08:41:42.624Z,1.45
2023-04-14T08:43:45.096Z,1.33
2023-04-14T08:45:47.300Z,1.88
2023-04-14T08:47:51.784Z,1.60
2023-04-14T08:49:57.409Z,1.85
2023-04-14T08:52:03.543Z,1.55
2023-04-14T08:54:10.686Z,1.73
2023-04-14T08:56:15.181Z,1.60
2023-04-14T08:58:17.329Z,2.03
2023-04-14T09:00:19.814Z,2.33
2023-04-14T09:02:21.915Z,1.33
2023-04-14T09:04:24.176Z,1.50
2023-04-14T09:06:26.492Z,2.03
2023-04-14T09:08:28.670Z,1.52
2023-04-14T09:10:30.714Z,1.35
2023-04-14T09:12:32.633Z,2.05
2023-04-14T09:14:34.474Z,1.38
2023-04-14T09:16:36.415Z,1.52
2023-04-14T09:18:38.693Z,1.52
2023-04-14T09:20:42.499Z,1.70
2023-04-14T09:22:47.071Z,2.20
2023-04-14T09:24:58.203Z,1.27
2023-04-14T09:27:13.742Z,1.95
2023-04-14T09:29:29.209Z,1.63
2023-04-14T09:31:33.646Z,1.33
2023-04-14T09:33:40.260Z,2.13
2023-04-14T09:35:46.728Z,1.90
2023-04-14T09:37:48.907Z,1.38
2023-04-14T09:39:52.145Z,1.45
2023-04-14T09:41:54.102Z,1.13
2023-04-14T09:43:56.101Z,1.35
2023-04-14T09:46:04.460Z,1.25
2023-04-14T09:48:07.373Z,1.20
2023-04-14T09:50:09.975Z,1.08
2023-04-14T09:52:11.715Z,1.58
2023-04-14T09:54:23.358Z,0.93
2023-04-14T09:56:28.531Z,1.23
2023-04-14T09:58:38.369Z,1.55
2023-04-14T10:00:40.066Z,0.77
2023-04-14T10:02:56.471Z,0.90
2023-04-14T10:05:06.490Z,0.98
2023-04-14T10:07:08.390Z,0.93
2023-04-14T10:09:22.538Z,0.82
2023-04-14T10:11:29.825Z,1.10
2023-04-14T10:13:31.731Z,1.00
2023-04-14T10:15:33.725Z,1.10
2023-04-14T10:17:37.406Z,1.00
2023-04-14T10:19:39.404Z,1.35
2023-04-14T10:21:41.254Z,0.88
2023-04-14T10:23:44.118Z,0.90
2023-04-14T10:25:47.263Z,1.38
2023-04-14T10:27:58.605Z,1.08
2023-04-14T10:30:00.624Z,0.90
2023-04-14T10:32:05.610Z,0.95
2023-04-14T10:34:16.364Z,1.00
2023-04-14T10:36:29.220Z,0.90
2023-04-14T10:38:44.649Z,1.20
2023-04-14T10:40:47.205Z,1.15
2023-04-14T10:42:53.318Z,0.93
2023-04-14T10:45:08.649Z,1.30
2023-04-14T10:47:10.833Z,1.25
2023-04-14T10:49:13.386Z,1.23
2023-04-14T10:51:18.042Z,0.98
2023-04-14T10:53:19.819Z,1.08
2023-04-14T10:55:25.931Z,0.88
2023-04-14T10:57:29.621Z,1.25
2023-04-14T10:59:32.252Z,0.82
2023-04-14T11:01:36.534Z,0.75
2023-04-14T11:03:45.187Z,0.90
2023-04-14T11:05:53.119Z,0.90
2023-04-14T11:07:56.677Z,0.85
2023-04-14T11:10:23.744Z,0.77
2023-04-14T11:12:27.837Z,1.00
2023-04-14T11:14:33.430Z,0.75
2023-04-14T11:16:47.630Z,0.82
2023-04-14T11:19:01.992Z,0.80
2023-04-14T11:21:06.925Z,1.00
2023-04-14T11:23:09.810Z,0.95
2023-04-14T11:25:16.342Z,0.80
2023-04-14T11:27:19.485Z,0.68
2023-04-14T11:29:22.315Z,0.90
2023-04-14T11:31:27.732Z,0.80
2023-04-14T11:33:34.387Z,0.75
2023-04-14T11:35:36.217Z,0.80
2023-04-14T11:37:39.152Z,0.77
2023-04-14T11:39:41.557Z,0.95
2023-04-14T11:41:47.252Z,0.82
2023-04-14T11:43:49.190Z,0.70
2023-04-14T11:45:52.282Z,0.80
2023-04-14T11:48:04.489Z,0.68
2023-04-14T11:50:07.389Z,0.70
2023-04-14T11:52:09.409Z,0.70
2023-04-14T11:54:13.233Z,1.30
2023-04-14T11:56:15.519Z,1.08
2023-04-14T11:58:22.794Z,0.70
2023-04-14T12:00:25.120Z,0.63
2023-04-14T12:02:27.097Z,0.70
2023-04-14T12:04:31.726Z,0.90
2023-04-14T12:06:36.669Z,0.47
2023-04-14T12:08:38.481Z,0.80
2023-04-14T12:10:42.165Z,0.68
2023-04-14T12:12:43.923Z,0.55
2023-04-14T12:14:47.871Z,0.88
2023-04-14T12:16:49.612Z,0.68
2023-04-14T12:18:51.342Z,0.85
2023-04-14T12:21:01.721Z,0.75
2023-04-14T12:23:06.537Z,0.88
2023-04-14T12:25:12.685Z,0.60
2023-04-14T12:27:18.903Z,0.60
2023-04-14T12:29:20.677Z,0.70
2023-04-14T12:31:58.465Z,1.50
2023-04-14T12:34:04.049Z,0.52
2023-04-14T12:36:07.805Z,0.55
2023-04-14T12:38:13.214Z,0.70
2023-04-14T12:40:15.781Z,0.73
2023-04-14T12:42:18.313Z,0.70
2023-04-14T12:44:21.141Z,0.70
2023-04-14T12:46:25.696Z,0.65
2023-04-14T12:48:45.103Z,0.73
2023-04-14T12:50:47.373Z,1.00
2023-04-14T12:52:49.241Z,0.90
2023-04-14T12:54:54.354Z,0.80
2023-04-14T12:56:57.254Z,0.98
2023-04-14T12:58:58.972Z,0.60
2023-04-14T13:01:00.697Z,0.80
2023-04-14T13:03:02.595Z,0.73
2023-04-14T13:05:05.103Z,0.80
2023-04-14T13:07:06.826Z,0.75
2023-04-14T13:09:08.725Z,0.82
2023-04-14T13:11:11.941Z,0.73
2023-04-14T13:13:13.623Z,0.80
2023-04-14T13:16:10.601Z,1.15
2023-04-14T13:17:37.466Z,0.70
2023-04-14T13:19:43.294Z,0.50
2023-04-14T13:21:50.581Z,0.85
2023-04-14T13:23:53.251Z,0.82
2023-04-14T13:25:54.951Z,0.80
2023-04-14T13:27:56.710Z,0.82
2023-04-14T13:29:58.438Z,1.10
2023-04-14T13:32:00.811Z,1.10
2023-04-14T13:34:02.534Z,0.93
2023-04-14T13:36:04.428Z,0.60
2023-04-14T13:38:06.178Z,0.90
2023-04-14T13:40:08.872Z,1.13
2023-04-14T13:42:10.613Z,0.85
2023-04-14T13:44:13.046Z,1.15
2023-04-14T13:46:15.152Z,0.90
2023-04-14T13:48:18.091Z,0.70
2023-04-14T13:50:20.329Z,0.70
2023-04-14T13:52:21.985Z,0.70
2023-04-14T13:54:23.743Z,0.70
2023-04-14T13:56:26.128Z,0.85
2023-04-14T13:58:28.035Z,0.60
2023-04-14T14:00:29.980Z,0.70
2023-04-14T14:02:32.916Z,0.60
2023-04-14T14:04:38.065Z,0.68
2023-04-14T14:06:40.076Z,0.80
2023-04-14T14:08:42.527Z,0.65
2023-04-14T14:10:44.266Z,0.60
2023-04-14T14:12:46.383Z,0.77
2023-04-14T14:14:48.528Z,1.10
2023-04-14T14:16:51.182Z,0.52
2023-04-14T14:18:53.418Z,0.77
2023-04-14T14:20:55.349Z,0.68
2023-04-14T14:22:57.551Z,0.70
2023-04-14T14:25:14.996Z,0.70
2023-04-14T14:27:20.794Z,0.70
2023-04-14T14:29:23.025Z,0.80
2023-04-14T14:31:24.870Z,0.68
2023-04-14T14:33:26.604Z,0.70
2023-04-14T14:35:28.658Z,0.73
2023-04-14T14:37:30.816Z,0.88
2023-04-14T14:39:32.776Z,0.60
2023-04-14T14:41:34.464Z,0.70
2023-04-14T14:43:36.392Z,0.75
2023-04-14T14:45:38.363Z,0.80
2023-04-14T14:47:40.425Z,0.70
2023-04-14T14:49:56.709Z,0.93
2023-04-14T14:52:04.145Z,0.57
2023-04-14T14:54:10.085Z,0.68
2023-04-14T14:56:12.344Z,0.65
2023-04-14T14:58:14.120Z,0.82
2023-04-14T15:00:16.073Z,0.90
2023-04-14T15:02:17.827Z,0.65
2023-04-14T15:04:19.938Z,0.70
2023-04-14T15:06:21.857Z,0.70
2023-04-14T15:08:24.090Z,0.47
2023-04-14T15:10:25.989Z,0.73
2023-04-14T15:12:31.990Z,0.80
2023-04-14T15:14:33.810Z,0.80
2023-04-14T15:16:35.575Z,0.80
2023-04-14T15:18:37.362Z,0.70
2023-04-14T15:20:39.402Z,0.65
2023-04-14T15:22:41.146Z,0.70
2023-04-14T15:24:43.009Z,1.02
2023-04-14T15:26:44.678Z,0.98
2023-04-14T15:28:48.154Z,0.98
2023-04-14T15:30:49.892Z,0.90
2023-04-14T15:32:51.834Z,0.70
2023-04-14T15:34:54.477Z,0.90
2023-04-14T15:36:56.412Z,0.73
2023-04-14T15:38:58.304Z,0.80
2023-04-14T15:41:05.973Z,0.80
2023-04-14T15:43:07.744Z,0.80
2023-04-14T15:45:09.970Z,1.13
2023-04-14T15:47:11.746Z,1.08
2023-04-14T15:49:13.510Z,1.05
2023-04-14T15:51:15.509Z,0.85
2023-04-14T15:53:17.216Z,0.88
2023-04-14T15:55:19.087Z,0.88
2023-04-14T15:57:21.844Z,1.00
2023-04-14T15:59:27.800Z,0.68
2023-04-14T16:01:29.915Z,0.70
2023-04-14T16:03:32.175Z,0.88
2023-04-14T16:05:34.384Z,0.82
2023-04-14T16:07:36.114Z,0.63
2023-04-14T16:09:37.878Z,0.95
2023-04-14T16:11:40.030Z,0.80
2023-04-14T16:13:44.491Z,0.82
2023-04-14T16:15:46.624Z,0.70
2023-04-14T16:17:48.410Z,1.00
2023-04-14T16:19:52.944Z,0.77
2023-04-14T16:21:55.195Z,0.80
2023-04-14T16:23:56.969Z,0.88
2023-04-14T16:25:58.674Z,0.90
2023-04-14T16:28:00.374Z,1.25
2023-04-14T16:30:03.399Z,0.70
2023-04-14T16:32:05.187Z,0.73
2023-04-14T16:34:08.272Z,0.75
2023-04-14T16:36:10.077Z,0.88
2023-04-14T16:38:12.206Z,1.42
2023-04-14T16:40:13.904Z,0.75
2023-04-14T16:42:18.730Z,0.95
2023-04-14T16:44:20.767Z,0.88
2023-04-14T16:46:24.321Z,0.77
2023-04-14T16:48:27.137Z,0.80
2023-04-14T16:50:29.631Z,1.10
2023-04-14T16:52:31.423Z,0.88
2023-04-14T16:54:33.139Z,0.93
2023-04-14T16:56:36.797Z,1.20
2023-04-14T16:58:40.088Z,0.90
2023-04-14T17:00:42.224Z,1.02
2023-04-14T17:02:44.237Z,0.75
2023-04-14T17:04:46.312Z,0.80
2023-04-14T17:06:48.188Z,0.68
2023-04-14T17:08:49.971Z,0.93
2023-04-14T17:10:52.018Z,0.90
2023-04-14T17:12:53.832Z,0.77
2023-04-14T17:14:56.448Z,0.82
2023-04-14T17:16:58.863Z,1.15
2023-04-14T17:19:01.220Z,0.90
2023-04-14T17:21:03.459Z,0.70
2023-04-14T17:23:05.575Z,0.73
2023-04-14T17:25:08.900Z,1.90
2023-04-14T17:27:11.092Z,0.82
2023-04-14T17:29:12.827Z,0.93
2023-04-14T17:31:14.729Z,0.73
2023-04-14T17:33:17.409Z,0.90
2023-04-14T17:35:22.628Z,0.70
2023-04-14T17:37:25.526Z,1.23
2023-04-14T17:39:27.243Z,0.80
2023-04-14T17:41:29.160Z,0.98
2023-04-14T17:43:31.243Z,0.88
2023-04-14T17:45:34.705Z,0.90
2023-04-14T17:47:38.391Z,0.75
2023-04-14T17:49:40.137Z,0.90
2023-04-14T17:51:41.862Z,0.85
2023-04-14T17:53:43.725Z,1.02
2023-04-14T17:55:45.536Z,0.70
2023-04-14T17:57:47.319Z,1.00
2023-04-14T17:59:49.114Z,0.90
2023-04-14T18:01:50.820Z,0.90
2023-04-14T18:03:52.645Z,1.00
2023-04-14T18:05:54.433Z,1.10
2023-04-14T18:07:56.149Z,1.10
2023-04-14T18:09:58.564Z,1.00
2023-04-14T18:12:00.294Z,0.80
2023-04-14T18:14:02.240Z,1.10
2023-04-14T18:16:04.580Z,1.10
2023-04-14T18:18:06.452Z,0.98
2023-04-14T18:20:10.808Z,1.50
2023-04-14T18:22:12.611Z,1.27
2023-04-14T18:28:23.536Z,1.25
2023-04-14T18:30:25.246Z,1.05
2023-04-14T18:32:27.701Z,1.67
2023-04-14T18:34:29.525Z,1.38
2023-04-14T18:36:35.019Z,1.73
2023-04-14T18:38:36.764Z,2.10
2023-04-14T18:40:38.478Z,1.45
2023-04-14T18:42:40.266Z,1.65
2023-04-14T18:44:42.134Z,1.20
2023-04-14T18:46:44.055Z,1.52
2023-04-14T18:48:45.927Z,1.30
2023-04-14T18:50:48.029Z,1.38
2023-04-14T18:52:49.769Z,1.35
2023-04-14T18:54:52.083Z,1.20
2023-04-14T18:56:53.811Z,1.08
2023-04-14T18:58:57.637Z,1.13
2023-04-14T19:00:59.383Z,1.38
2023-04-14T19:03:02.879Z,1.58
2023-04-14T19:05:05.609Z,1.02
2023-04-14T19:07:07.430Z,1.73
2023-04-14T19:09:09.244Z,1.42
2023-04-14T19:11:12.102Z,1.60
2023-04-14T19:13:14.779Z,2.20
2023-04-14T19:15:16.598Z,1.67
2023-04-14T19:17:18.267Z,1.30
2023-04-14T19:19:19.956Z,1.10
2023-04-14T19:21:21.665Z,2.08
2023-04-14T19:23:23.485Z,1.50
2023-04-14T19:25:25.196Z,1.52
2023-04-14T19:27:26.863Z,1.40
2023-04-14T19:29:29.156Z,1.30
2023-04-14T19:31:31.377Z,1.80
2023-04-14T19:33:33.357Z,1.77
2023-04-14T19:35:35.207Z,2.58
2023-04-14T19:37:36.841Z,5.32
2023-04-14T19:39:38.490Z,9.20
2023-04-14T19:41:40.147Z,11.80
2023-04-14T19:43:42.429Z,11.48
2023-04-14T19:45:54.467Z,10.90
2023-04-14T19:47:56.674Z,8.60
2023-04-14T19:49:59.905Z,9.52
2023-04-14T19:52:01.734Z,8.57
2023-04-14T19:54:05.537Z,8.80
2023-04-14T19:56:07.233Z,8.65
2023-04-14T19:58:08.953Z,8.65
2023-04-14T20:00:12.274Z,8.60
2023-04-14T20:02:14.219Z,8.18
2023-04-14T20:04:16.240Z,8.55
2023-04-14T20:06:19.563Z,7.57
2023-04-14T20:08:22.747Z,7.13
2023-04-14T20:10:24.999Z,5.82
2023-04-14T20:12:26.655Z,4.82
2023-04-14T20:14:28.351Z,4.75
2023-04-14T20:16:30.664Z,3.13
2023-04-14T20:18:32.676Z,2.85
2023-04-14T20:20:34.670Z,3.60
2023-04-14T20:22:36.475Z,2.95
2023-04-14T20:24:39.553Z,3.08
2023-04-14T20:26:43.618Z,2.97
2023-04-14T20:28:45.650Z,3.25
2023-04-14T20:30:49.495Z,2.80
2023-04-14T20:32:52.175Z,3.53
2023-04-14T20:34:54.178Z,4.63
2023-04-14T20:36:55.842Z,5.30
2023-04-14T20:38:57.592Z,5.50
2023-04-14T20:40:59.318Z,6.03
2023-04-14T20:43:01.123Z,7.10
2023-04-14T20:45:03.148Z,6.90
2023-04-14T20:47:05.063Z,6.97
2023-04-14T20:49:07.549Z,6.15
2023-04-14T20:51:09.277Z,4.63
2023-04-14T20:53:11.075Z,4.78
2023-04-14T20:55:16.051Z,4.47
2023-04-14T20:57:17.794Z,4.57
2023-04-14T20:59:19.478Z,6.00
2023-04-14T21:01:21.346Z,5.25
2023-04-14T21:03:25.996Z,4.95
2023-04-14T21:05:30.606Z,4.65
2023-04-14T21:07:32.263Z,5.53
2023-04-14T21:09:33.937Z,5.45
2023-04-14T21:11:37.211Z,5.95
2023-04-14T21:15:30.573Z,6.28
2023-04-14T21:16:02.978Z,5.10
2023-04-14T21:18:04.784Z,3.53
2023-04-14T21:20:07.051Z,2.42
2023-04-14T21:22:08.843Z,2.85
2023-04-14T21:24:10.604Z,2.58
2023-04-14T21:26:13.366Z,2.83
2023-04-14T21:28:15.314Z,3.40
2023-04-14T21:30:17.627Z,5.63
2023-04-14T21:32:19.296Z,4.68
2023-04-14T21:34:21.010Z,5.43
2023-04-14T21:36:23.035Z,5.35
2023-04-14T21:38:25.165Z,5.45
2023-04-14T21:40:29.663Z,4.88
2023-04-14T21:42:31.570Z,5.20
2023-04-14T21:44:33.275Z,5.78
2023-04-14T21:46:34.996Z,4.40
2023-04-14T21:48:36.736Z,4.43
2023-04-14T21:50:39.731Z,4.18
2023-04-14T21:52:41.562Z,4.18
2023-04-14T21:54:44.480Z,3.58
2023-04-14T21:56:46.219Z,3.75
2023-04-14T21:58:47.916Z,4.07
2023-04-14T22:00:50.886Z,3.95
2023-04-14T22:02:52.727Z,4.20
2023-04-14T22:04:54.685Z,5.07
2023-04-14T22:06:57.556Z,2.97
2023-04-14T22:08:59.365Z,3.20
2023-04-14T22:11:01.514Z,3.53
2023-04-14T22:13:03.258Z,3.33
2023-04-14T22:15:06.658Z,3.50
2023-04-14T22:17:08.625Z,3.53
2023-04-14T22:19:10.656Z,3.75
2023-04-14T22:21:14.531Z,3.25
2023-04-14T22:23:16.268Z,2.63
2023-04-14T22:25:18.088Z,2.90
2023-04-14T22:27:19.833Z,3.13
2023-04-14T22:29:22.044Z,3.40
2023-04-14T22:31:25.375Z,3.70
2023-04-14T22:33:27.444Z,3.28
2023-04-14T22:35:29.648Z,3.42
2023-04-14T22:37:31.351Z,3.72
2023-04-14T22:39:33.222Z,8.98
2023-04-14T22:41:34.922Z,5.20
2023-04-14T22:43:36.560Z,4.32
2023-04-14T22:45:39.651Z,3.97
2023-04-14T22:47:41.764Z,4.05
2023-04-14T22:49:43.550Z,4.43
2023-04-14T22:51:45.237Z,3.95
2023-04-14T22:53:46.949Z,3.53
2023-04-14T22:55:48.705Z,3.85
2023-04-14T22:57:50.419Z,4.22
2023-04-14T22:59:52.375Z,4.05
2023-04-14T23:01:54.218Z,3.97
2023-04-14T23:03:56.229Z,4.00
2023-04-14T23:06:00.152Z,3.70
2023-04-14T23:08:02.187Z,3.90
2023-04-14T23:10:06.327Z,3.47
2023-04-14T23:12:08.014Z,3.72
2023-04-14T23:14:09.763Z,3.35
2023-04-14T23:16:11.882Z,3.80
2023-04-14T23:18:14.063Z,3.28
2023-04-14T23:20:15.786Z,2.63
2023-04-14T23:22:20.675Z,3.78
2023-04-14T23:24:23.594Z,3.90
2023-04-14T23:26:25.704Z,3.20
2023-04-14T23:28:27.399Z,3.20
2023-04-14T23:30:29.557Z,3.60
2023-04-14T23:32:31.386Z,3.35
2023-04-14T23:34:33.097Z,3.47
2023-04-14T23:36:34.903Z,3.70
2023-04-14T23:38:37.711Z,3.83
2023-04-14T23:40:39.449Z,2.83
2023-04-14T23:42:41.129Z,2.60
2023-04-14T23:44:43.128Z,3.17
2023-04-14T23:46:45.134Z,3.50
2023-04-14T23:48:47.007Z,3.58
2023-04-14T23:51:00.587Z,2.83
2023-04-14T23:53:10.711Z,3.65
2023-04-14T23:55:12.843Z,3.53
2023-04-14T23:57:14.637Z,2.97
2023-04-14T23:59:17.193Z,3.33
